sensor_id;sensor_type;location;lat;lon;timestamp;temperature;humidity
38606;DHT22;24365;48.446;8.850;2023-12-20T00:04:48;5.40;74.90
38606;DHT22;24365;48.446;8.850;2023-12-20T00:09:49;5.40;75.60
38606;DHT22;24365;48.446;8.850;2023-12-20T00:14:50;5.50;75.50
38606;DHT22;24365;48.446;8.850;2023-12-20T00:19:51;5.50;75.20
38606;DHT22;24365;48.446;8.850;2023-12-20T00:24:51;5.50;75.40
38606;DHT22;24365;48.446;8.850;2023-12-20T00:29:52;5.60;75.70
38606;DHT22;24365;48.446;8.850;2023-12-20T00:34:53;5.50;75.80
38606;DHT22;24365;48.446;8.850;2023-12-20T00:39:54;5.50;76.00
38606;DHT22;24365;48.446;8.850;2023-12-20T00:44:55;5.60;76.30
38606;DHT22;24365;48.446;8.850;2023-12-20T00:49:56;5.60;75.70
38606;DHT22;24365;48.446;8.850;2023-12-20T00:54:57;5.70;75.10
38606;DHT22;24365;48.446;8.850;2023-12-20T00:59:57;5.70;75.30
38606;DHT22;24365;48.446;8.850;2023-12-20T01:04:58;5.70;75.50
38606;DHT22;24365;48.446;8.850;2023-12-20T01:09:59;5.80;75.40
38606;DHT22;24365;48.446;8.850;2023-12-20T01:15:00;5.90;75.50
38606;DHT22;24365;48.446;8.850;2023-12-20T01:20:01;6.10;75.60
38606;DHT22;24365;48.446;8.850;2023-12-20T01:25:02;6.10;75.90
38606;DHT22;24365;48.446;8.850;2023-12-20T01:30:03;6.00;77.20
38606;DHT22;24365;48.446;8.850;2023-12-20T01:35:05;5.90;79.10
38606;DHT22;24365;48.446;8.850;2023-12-20T01:40:06;5.80;80.80
38606;DHT22;24365;48.446;8.850;2023-12-20T01:45:07;5.70;82.40
38606;DHT22;24365;48.446;8.850;2023-12-20T01:50:08;5.60;83.60
38606;DHT22;24365;48.446;8.850;2023-12-20T01:55:09;5.60;83.70
38606;DHT22;24365;48.446;8.850;2023-12-20T02:00:14;5.60;85.00
38606;DHT22;24365;48.446;8.850;2023-12-20T02:05:15;5.50;85.50
38606;DHT22;24365;48.446;8.850;2023-12-20T02:10:16;5.40;86.20
38606;DHT22;24365;48.446;8.850;2023-12-20T02:15:17;5.50;87.20
38606;DHT22;24365;48.446;8.850;2023-12-20T02:20:18;5.40;86.80
38606;DHT22;24365;48.446;8.850;2023-12-20T02:25:19;5.40;87.20
38606;DHT22;24365;48.446;8.850;2023-12-20T02:30:20;5.40;87.90
38606;DHT22;24365;48.446;8.850;2023-12-20T02:35:21;5.30;88.10
38606;DHT22;24365;48.446;8.850;2023-12-20T02:40:22;5.40;88.60
38606;DHT22;24365;48.446;8.850;2023-12-20T02:45:22;5.50;88.00
38606;DHT22;24365;48.446;8.850;2023-12-20T02:50:23;5.40;88.40
38606;DHT22;24365;48.446;8.850;2023-12-20T02:55:24;5.50;88.20
38606;DHT22;24365;48.446;8.850;2023-12-20T03:00:25;5.40;87.90
38606;DHT22;24365;48.446;8.850;2023-12-20T03:05:26;5.40;87.80
38606;DHT22;24365;48.446;8.850;2023-12-20T03:10:27;5.40;87.90
38606;DHT22;24365;48.446;8.850;2023-12-20T03:15:28;5.40;88.10
38606;DHT22;24365;48.446;8.850;2023-12-20T03:20:29;5.40;87.80
38606;DHT22;24365;48.446;8.850;2023-12-20T03:25:34;5.40;87.60
38606;DHT22;24365;48.446;8.850;2023-12-20T03:30:35;5.40;87.30
38606;DHT22;24365;48.446;8.850;2023-12-20T03:35:36;5.40;86.70
38606;DHT22;24365;48.446;8.850;2023-12-20T03:40:37;5.40;86.60
38606;DHT22;24365;48.446;8.850;2023-12-20T03:45:38;5.40;86.20
38606;DHT22;24365;48.446;8.850;2023-12-20T03:50:39;5.40;85.70
38606;DHT22;24365;48.446;8.850;2023-12-20T03:55:40;5.40;85.30
38606;DHT22;24365;48.446;8.850;2023-12-20T04:00:41;5.40;85.30
38606;DHT22;24365;48.446;8.850;2023-12-20T04:05:42;5.40;85.40
38606;DHT22;24365;48.446;8.850;2023-12-20T04:10:43;5.30;85.20
38606;DHT22;24365;48.446;8.850;2023-12-20T04:15:45;5.30;84.40
38606;DHT22;24365;48.446;8.850;2023-12-20T04:20:46;5.30;84.70
38606;DHT22;24365;48.446;8.850;2023-12-20T04:25:47;5.30;83.70
38606;DHT22;24365;48.446;8.850;2023-12-20T04:30:48;5.20;82.80
38606;DHT22;24365;48.446;8.850;2023-12-20T04:35:49;5.20;83.20
38606;DHT22;24365;48.446;8.850;2023-12-20T04:40:50;5.20;83.40
38606;DHT22;24365;48.446;8.850;2023-12-20T04:45:50;5.10;83.70
38606;DHT22;24365;48.446;8.850;2023-12-20T04:50:51;5.10;84.50
38606;DHT22;24365;48.446;8.850;2023-12-20T04:55:52;5.10;84.40
38606;DHT22;24365;48.446;8.850;2023-12-20T05:00:53;5.00;84.20
38606;DHT22;24365;48.446;8.850;2023-12-20T05:05:54;5.00;84.40
38606;DHT22;24365;48.446;8.850;2023-12-20T05:10:55;5.00;84.80
38606;DHT22;24365;48.446;8.850;2023-12-20T05:15:56;5.00;84.50
38606;DHT22;24365;48.446;8.850;2023-12-20T05:20:57;4.90;84.80
38606;DHT22;24365;48.446;8.850;2023-12-20T05:25:58;4.90;85.60
38606;DHT22;24365;48.446;8.850;2023-12-20T05:30:59;4.90;85.40
38606;DHT22;24365;48.446;8.850;2023-12-20T05:36:00;4.90;85.00
38606;DHT22;24365;48.446;8.850;2023-12-20T05:41:01;4.90;85.30
38606;DHT22;24365;48.446;8.850;2023-12-20T05:46:02;4.90;85.40
38606;DHT22;24365;48.446;8.850;2023-12-20T05:51:03;4.90;85.40
38606;DHT22;24365;48.446;8.850;2023-12-20T05:56:04;4.90;84.80
38606;DHT22;24365;48.446;8.850;2023-12-20T06:01:05;4.90;85.00
38606;DHT22;24365;48.446;8.850;2023-12-20T06:06:06;4.80;85.40
38606;DHT22;24365;48.446;8.850;2023-12-20T06:11:07;4.90;86.00
38606;DHT22;24365;48.446;8.850;2023-12-20T06:16:08;4.80;85.90
38606;DHT22;24365;48.446;8.850;2023-12-20T06:21:09;4.80;86.60
38606;DHT22;24365;48.446;8.850;2023-12-20T06:26:13;4.80;87.40
38606;DHT22;24365;48.446;8.850;2023-12-20T06:31:14;4.80;86.80
38606;DHT22;24365;48.446;8.850;2023-12-20T06:36:15;4.70;87.00
38606;DHT22;24365;48.446;8.850;2023-12-20T06:41:16;4.70;87.30
38606;DHT22;24365;48.446;8.850;2023-12-20T06:46:17;4.70;86.70
38606;DHT22;24365;48.446;8.850;2023-12-20T06:51:18;4.70;85.80
38606;DHT22;24365;48.446;8.850;2023-12-20T06:56:20;4.70;86.20
38606;DHT22;24365;48.446;8.850;2023-12-20T07:01:21;4.60;85.90
38606;DHT22;24365;48.446;8.850;2023-12-20T07:06:23;4.50;85.70
38606;DHT22;24365;48.446;8.850;2023-12-20T07:11:24;4.40;85.80
38606;DHT22;24365;48.446;8.850;2023-12-20T07:16:25;4.40;85.80
38606;DHT22;24365;48.446;8.850;2023-12-20T07:21:26;4.40;86.00
38606;DHT22;24365;48.446;8.850;2023-12-20T07:26:27;4.40;86.40
38606;DHT22;24365;48.446;8.850;2023-12-20T07:31:27;4.40;86.80
38606;DHT22;24365;48.446;8.850;2023-12-20T07:36:28;4.50;86.80
38606;DHT22;24365;48.446;8.850;2023-12-20T07:41:29;4.50;86.70
38606;DHT22;24365;48.446;8.850;2023-12-20T07:46:30;4.40;87.10
38606;DHT22;24365;48.446;8.850;2023-12-20T07:51:31;4.50;87.40
38606;DHT22;24365;48.446;8.850;2023-12-20T07:56:32;4.60;88.00
38606;DHT22;24365;48.446;8.850;2023-12-20T08:01:33;4.70;88.40
38606;DHT22;24365;48.446;8.850;2023-12-20T08:06:34;4.70;88.30
38606;DHT22;24365;48.446;8.850;2023-12-20T08:11:35;4.80;88.20
38606;DHT22;24365;48.446;8.850;2023-12-20T08:16:36;4.80;88.50
38606;DHT22;24365;48.446;8.850;2023-12-20T08:21:37;4.80;88.50
38606;DHT22;24365;48.446;8.850;2023-12-20T08:26:38;4.80;88.70
38606;DHT22;24365;48.446;8.850;2023-12-20T08:31:39;4.90;89.50
38606;DHT22;24365;48.446;8.850;2023-12-20T08:36:41;4.90;88.80
38606;DHT22;24365;48.446;8.850;2023-12-20T08:41:42;5.00;88.70
38606;DHT22;24365;48.446;8.850;2023-12-20T08:46:43;5.10;88.00
38606;DHT22;24365;48.446;8.850;2023-12-20T08:51:43;5.10;88.00
38606;DHT22;24365;48.446;8.850;2023-12-20T08:56:44;5.10;88.20
38606;DHT22;24365;48.446;8.850;2023-12-20T09:01:46;5.10;88.30
38606;DHT22;24365;48.446;8.850;2023-12-20T09:06:48;5.10;87.90
38606;DHT22;24365;48.446;8.850;2023-12-20T09:11:51;5.10;88.50
38606;DHT22;24365;48.446;8.850;2023-12-20T09:16:52;5.20;88.20
38606;DHT22;24365;48.446;8.850;2023-12-20T09:21:56;5.20;87.50
38606;DHT22;24365;48.446;8.850;2023-12-20T09:26:57;5.10;85.90
38606;DHT22;24365;48.446;8.850;2023-12-20T09:31:58;5.10;85.20
38606;DHT22;24365;48.446;8.850;2023-12-20T09:37:00;5.10;84.90
38606;DHT22;24365;48.446;8.850;2023-12-20T09:42:04;5.10;83.60
38606;DHT22;24365;48.446;8.850;2023-12-20T09:47:06;5.10;82.60
38606;DHT22;24365;48.446;8.850;2023-12-20T09:52:07;5.00;81.00
38606;DHT22;24365;48.446;8.850;2023-12-20T09:57:10;5.00;80.60
38606;DHT22;24365;48.446;8.850;2023-12-20T10:02:12;4.90;80.40
38606;DHT22;24365;48.446;8.850;2023-12-20T10:07:15;5.00;82.00
38606;DHT22;24365;48.446;8.850;2023-12-20T10:12:16;5.00;81.20
38606;DHT22;24365;48.446;8.850;2023-12-20T10:17:17;5.00;81.00
38606;DHT22;24365;48.446;8.850;2023-12-20T10:22:19;5.00;81.10
38606;DHT22;24365;48.446;8.850;2023-12-20T10:27:19;5.10;79.60
38606;DHT22;24365;48.446;8.850;2023-12-20T10:37:24;5.10;78.20
38606;DHT22;24365;48.446;8.850;2023-12-20T10:42:26;5.20;77.50
38606;DHT22;24365;48.446;8.850;2023-12-20T10:47:26;5.20;76.30
38606;DHT22;24365;48.446;8.850;2023-12-20T10:52:28;5.20;74.60
38606;DHT22;24365;48.446;8.850;2023-12-20T10:57:30;5.30;73.50
38606;DHT22;24365;48.446;8.850;2023-12-20T11:02:32;5.30;73.40
38606;DHT22;24365;48.446;8.850;2023-12-20T11:07:34;5.40;70.30
38606;DHT22;24365;48.446;8.850;2023-12-20T11:17:40;5.40;69.00
38606;DHT22;24365;48.446;8.850;2023-12-20T11:22:51;5.50;69.90
38606;DHT22;24365;48.446;8.850;2023-12-20T11:28:10;5.60;68.00
38606;DHT22;24365;48.446;8.850;2023-12-20T11:33:15;5.70;67.00
38606;DHT22;24365;48.446;8.850;2023-12-20T11:38:17;5.90;64.70
38606;DHT22;24365;48.446;8.850;2023-12-20T11:43:36;5.90;63.20
38606;DHT22;24365;48.446;8.850;2023-12-20T11:48:38;5.90;63.20
38606;DHT22;24365;48.446;8.850;2023-12-20T11:53:40;5.90;63.20
38606;DHT22;24365;48.446;8.850;2023-12-20T11:58:43;5.90;61.70
38606;DHT22;24365;48.446;8.850;2023-12-20T12:03:44;5.80;61.00
38606;DHT22;24365;48.446;8.850;2023-12-20T12:08:44;5.70;60.60
38606;DHT22;24365;48.446;8.850;2023-12-20T12:13:45;5.80;60.50
38606;DHT22;24365;48.446;8.850;2023-12-20T12:18:46;5.80;57.90
38606;DHT22;24365;48.446;8.850;2023-12-20T12:24:05;5.80;58.60
38606;DHT22;24365;48.446;8.850;2023-12-20T12:29:09;5.90;58.00
38606;DHT22;24365;48.446;8.850;2023-12-20T12:34:10;6.00;53.60
38606;DHT22;24365;48.446;8.850;2023-12-20T12:39:14;5.90;54.60
38606;DHT22;24365;48.446;8.850;2023-12-20T12:44:19;5.80;54.70
38606;DHT22;24365;48.446;8.850;2023-12-20T12:49:20;5.80;54.40
38606;DHT22;24365;48.446;8.850;2023-12-20T12:54:22;5.70;55.20
38606;DHT22;24365;48.446;8.850;2023-12-20T12:59:25;5.70;56.60
38606;DHT22;24365;48.446;8.850;2023-12-20T13:04:26;5.80;56.70
38606;DHT22;24365;48.446;8.850;2023-12-20T13:09:27;5.70;57.70
38606;DHT22;24365;48.446;8.850;2023-12-20T13:14:28;5.80;58.00
38606;DHT22;24365;48.446;8.850;2023-12-20T13:19:29;5.80;57.00
38606;DHT22;24365;48.446;8.850;2023-12-20T13:24:31;5.80;58.00
38606;DHT22;24365;48.446;8.850;2023-12-20T13:29:32;5.80;57.10
38606;DHT22;24365;48.446;8.850;2023-12-20T13:34:33;5.70;57.60
38606;DHT22;24365;48.446;8.850;2023-12-20T13:39:34;5.70;59.40
38606;DHT22;24365;48.446;8.850;2023-12-20T13:44:35;5.70;59.70
38606;DHT22;24365;48.446;8.850;2023-12-20T13:49:36;5.70;61.30
38606;DHT22;24365;48.446;8.850;2023-12-20T13:54:37;5.70;59.20
38606;DHT22;24365;48.446;8.850;2023-12-20T13:59:39;5.70;59.20
38606;DHT22;24365;48.446;8.850;2023-12-20T14:04:40;5.70;60.00
38606;DHT22;24365;48.446;8.850;2023-12-20T14:09:41;5.60;59.50
38606;DHT22;24365;48.446;8.850;2023-12-20T14:14:46;5.60;59.70
38606;DHT22;24365;48.446;8.850;2023-12-20T14:19:47;5.60;60.60
38606;DHT22;24365;48.446;8.850;2023-12-20T14:24:48;5.50;61.20
38606;DHT22;24365;48.446;8.850;2023-12-20T14:29:49;5.50;60.40
38606;DHT22;24365;48.446;8.850;2023-12-20T14:34:50;5.50;62.60
38606;DHT22;24365;48.446;8.850;2023-12-20T14:39:51;5.50;63.40
38606;DHT22;24365;48.446;8.850;2023-12-20T14:44:52;5.50;64.10
38606;DHT22;24365;48.446;8.850;2023-12-20T14:49:55;5.30;65.30
38606;DHT22;24365;48.446;8.850;2023-12-20T14:54:55;5.20;66.60
38606;DHT22;24365;48.446;8.850;2023-12-20T14:59:56;5.10;67.60
38606;DHT22;24365;48.446;8.850;2023-12-20T15:04:57;5.00;68.70
38606;DHT22;24365;48.446;8.850;2023-12-20T15:09:58;4.90;68.70
38606;DHT22;24365;48.446;8.850;2023-12-20T15:14:59;4.90;69.80
38606;DHT22;24365;48.446;8.850;2023-12-20T15:20:00;4.90;69.60
38606;DHT22;24365;48.446;8.850;2023-12-20T15:25:00;4.90;69.00
38606;DHT22;24365;48.446;8.850;2023-12-20T15:30:02;4.80;69.60
38606;DHT22;24365;48.446;8.850;2023-12-20T15:35:03;4.80;70.50
38606;DHT22;24365;48.446;8.850;2023-12-20T15:40:04;4.70;71.30
38606;DHT22;24365;48.446;8.850;2023-12-20T15:45:06;4.70;71.70
38606;DHT22;24365;48.446;8.850;2023-12-20T15:50:07;4.60;72.40
38606;DHT22;24365;48.446;8.850;2023-12-20T15:55:08;4.60;72.60
38606;DHT22;24365;48.446;8.850;2023-12-20T16:00:09;4.60;72.80
38606;DHT22;24365;48.446;8.850;2023-12-20T16:05:10;4.50;72.50
38606;DHT22;24365;48.446;8.850;2023-12-20T16:10:11;4.50;72.50
38606;DHT22;24365;48.446;8.850;2023-12-20T16:15:12;4.40;73.10
38606;DHT22;24365;48.446;8.850;2023-12-20T16:20:13;4.40;73.00
38606;DHT22;24365;48.446;8.850;2023-12-20T16:25:14;4.30;73.00
38606;DHT22;24365;48.446;8.850;2023-12-20T16:30:15;4.30;73.00
38606;DHT22;24365;48.446;8.850;2023-12-20T16:35:19;4.30;72.50
38606;DHT22;24365;48.446;8.850;2023-12-20T16:40:20;4.30;72.90
38606;DHT22;24365;48.446;8.850;2023-12-20T16:45:25;4.30;73.30
38606;DHT22;24365;48.446;8.850;2023-12-20T16:50:25;4.30;73.30
38606;DHT22;24365;48.446;8.850;2023-12-20T16:55:26;4.30;73.70
38606;DHT22;24365;48.446;8.850;2023-12-20T17:00:27;4.30;73.00
38606;DHT22;24365;48.446;8.850;2023-12-20T17:05:28;4.20;73.30
38606;DHT22;24365;48.446;8.850;2023-12-20T17:10:29;4.30;72.90
38606;DHT22;24365;48.446;8.850;2023-12-20T17:15:30;4.20;73.20
38606;DHT22;24365;48.446;8.850;2023-12-20T17:20:31;4.30;73.70
38606;DHT22;24365;48.446;8.850;2023-12-20T17:25:32;4.30;73.80
38606;DHT22;24365;48.446;8.850;2023-12-20T17:30:39;4.30;73.30
38606;DHT22;24365;48.446;8.850;2023-12-20T17:35:39;4.30;73.10
38606;DHT22;24365;48.446;8.850;2023-12-20T17:40:40;4.30;73.20
38606;DHT22;24365;48.446;8.850;2023-12-20T17:45:41;4.20;74.40
38606;DHT22;24365;48.446;8.850;2023-12-20T17:50:42;4.20;75.00
38606;DHT22;24365;48.446;8.850;2023-12-20T17:55:43;4.30;74.20
38606;DHT22;24365;48.446;8.850;2023-12-20T18:00:44;4.30;73.80
38606;DHT22;24365;48.446;8.850;2023-12-20T18:05:46;4.30;74.50
38606;DHT22;24365;48.446;8.850;2023-12-20T18:10:47;4.30;75.00
38606;DHT22;24365;48.446;8.850;2023-12-20T18:15:48;4.30;74.50
38606;DHT22;24365;48.446;8.850;2023-12-20T18:20:48;4.20;74.00
38606;DHT22;24365;48.446;8.850;2023-12-20T18:25:49;4.20;74.30
38606;DHT22;24365;48.446;8.850;2023-12-20T18:30:54;4.20;74.50
38606;DHT22;24365;48.446;8.850;2023-12-20T18:35:54;4.20;73.90
38606;DHT22;24365;48.446;8.850;2023-12-20T18:40:56;4.40;73.40
38606;DHT22;24365;48.446;8.850;2023-12-20T18:45:57;4.40;72.40
38606;DHT22;24365;48.446;8.850;2023-12-20T18:50:58;4.50;72.90
38606;DHT22;24365;48.446;8.850;2023-12-20T18:55:59;4.40;71.80
38606;DHT22;24365;48.446;8.850;2023-12-20T19:01:00;4.40;71.50
38606;DHT22;24365;48.446;8.850;2023-12-20T19:06:01;4.50;72.00
38606;DHT22;24365;48.446;8.850;2023-12-20T19:11:03;4.40;71.70
38606;DHT22;24365;48.446;8.850;2023-12-20T19:16:04;4.50;71.50
38606;DHT22;24365;48.446;8.850;2023-12-20T19:21:05;4.50;71.10
38606;DHT22;24365;48.446;8.850;2023-12-20T19:26:11;4.50;71.10
38606;DHT22;24365;48.446;8.850;2023-12-20T19:31:13;4.40;71.30
38606;DHT22;24365;48.446;8.850;2023-12-20T19:36:15;4.40;72.20
38606;DHT22;24365;48.446;8.850;2023-12-20T19:41:16;4.50;72.20
38606;DHT22;24365;48.446;8.850;2023-12-20T19:46:18;4.50;71.80
38606;DHT22;24365;48.446;8.850;2023-12-20T19:51:19;4.50;71.40
38606;DHT22;24365;48.446;8.850;2023-12-20T19:56:21;4.50;71.60
38606;DHT22;24365;48.446;8.850;2023-12-20T20:01:23;4.40;72.20
38606;DHT22;24365;48.446;8.850;2023-12-20T20:06:24;4.40;72.60
38606;DHT22;24365;48.446;8.850;2023-12-20T20:11:25;4.20;73.20
38606;DHT22;24365;48.446;8.850;2023-12-20T20:16:26;4.10;75.30
38606;DHT22;24365;48.446;8.850;2023-12-20T20:21:27;4.00;75.60
38606;DHT22;24365;48.446;8.850;2023-12-20T20:26:28;3.90;75.50
38606;DHT22;24365;48.446;8.850;2023-12-20T20:31:29;3.90;74.90
38606;DHT22;24365;48.446;8.850;2023-12-20T20:36:34;3.80;75.40
38606;DHT22;24365;48.446;8.850;2023-12-20T20:41:34;3.80;75.90
38606;DHT22;24365;48.446;8.850;2023-12-20T20:46:35;3.70;75.60
38606;DHT22;24365;48.446;8.850;2023-12-20T20:51:36;3.70;76.90
38606;DHT22;24365;48.446;8.850;2023-12-20T20:56:37;3.70;76.10
38606;DHT22;24365;48.446;8.850;2023-12-20T21:01:39;3.70;75.80
38606;DHT22;24365;48.446;8.850;2023-12-20T21:06:40;3.60;76.00
38606;DHT22;24365;48.446;8.850;2023-12-20T21:11:41;3.70;76.90
38606;DHT22;24365;48.446;8.850;2023-12-20T21:16:42;3.70;76.50
38606;DHT22;24365;48.446;8.850;2023-12-20T21:21:43;3.70;76.90
38606;DHT22;24365;48.446;8.850;2023-12-20T21:26:44;3.90;76.20
38606;DHT22;24365;48.446;8.850;2023-12-20T21:31:45;4.00;75.80
38606;DHT22;24365;48.446;8.850;2023-12-20T21:36:46;4.00;75.70
38606;DHT22;24365;48.446;8.850;2023-12-20T21:41:47;4.00;76.00
38606;DHT22;24365;48.446;8.850;2023-12-20T21:46:48;3.90;76.70
38606;DHT22;24365;48.446;8.850;2023-12-20T21:51:48;3.90;77.00
38606;DHT22;24365;48.446;8.850;2023-12-20T21:56:49;3.90;77.80
38606;DHT22;24365;48.446;8.850;2023-12-20T22:01:52;3.90;76.80
38606;DHT22;24365;48.446;8.850;2023-12-20T22:06:53;3.90;77.20
38606;DHT22;24365;48.446;8.850;2023-12-20T22:11:53;3.90;77.20
38606;DHT22;24365;48.446;8.850;2023-12-20T22:16:55;3.90;77.10
38606;DHT22;24365;48.446;8.850;2023-12-20T22:21:56;4.00;76.90
38606;DHT22;24365;48.446;8.850;2023-12-20T22:26:57;4.00;76.00
38606;DHT22;24365;48.446;8.850;2023-12-20T22:32:01;4.10;76.10
38606;DHT22;24365;48.446;8.850;2023-12-20T22:37:01;4.10;75.70
38606;DHT22;24365;48.446;8.850;2023-12-20T22:42:04;4.20;75.50
38606;DHT22;24365;48.446;8.850;2023-12-20T22:47:05;4.10;75.50
38606;DHT22;24365;48.446;8.850;2023-12-20T22:52:06;4.10;75.80
38606;DHT22;24365;48.446;8.850;2023-12-20T22:57:07;4.20;75.50
38606;DHT22;24365;48.446;8.850;2023-12-20T23:02:09;4.20;75.40
38606;DHT22;24365;48.446;8.850;2023-12-20T23:07:11;4.20;75.20
38606;DHT22;24365;48.446;8.850;2023-12-20T23:12:12;4.30;74.90
38606;DHT22;24365;48.446;8.850;2023-12-20T23:17:13;4.20;75.50
38606;DHT22;24365;48.446;8.850;2023-12-20T23:22:13;4.30;74.90
38606;DHT22;24365;48.446;8.850;2023-12-20T23:27:14;4.40;74.60
38606;DHT22;24365;48.446;8.850;2023-12-20T23:32:15;4.40;74.40
38606;DHT22;24365;48.446;8.850;2023-12-20T23:37:16;4.50;73.90
38606;DHT22;24365;48.446;8.850;2023-12-20T23:42:17;4.50;73.90
38606;DHT22;24365;48.446;8.850;2023-12-20T23:47:20;4.50;73.90
38606;DHT22;24365;48.446;8.850;2023-12-20T23:52:20;4.60;73.50
38606;DHT22;24365;48.446;8.850;2023-12-20T23:57:21;4.70;73.50
